Time;durP1;ratioP1;P1;durP2;ratioP2;P2;SDS_P1;SDS_P2;PMS_P1;PMS_P2;Temp;Humidity;BMP_temperature;BMP_pressure;BME280_temperature;BME280_humidity;BME280_pressure;Samples;Min_cycle;Max_cycle;Signal;HPM_P1;HPM_P2
2022/07/04 00:02:17;;;;;;;1.40;0.43;;;;;;;30.80;41.19;100574.25;4951846;29;20019;-72
2022/07/04 00:04:43;;;;;;;2.60;0.50;;;;;;;30.76;40.73;100583.13;4951126;28;20031;-72
2022/07/04 00:07:08;;;;;;;1.20;0.30;;;;;;;30.76;41.12;100588.50;4951017;28;20101;-72
2022/07/04 00:09:33;;;;;;;1.30;0.50;;;;;;;30.74;40.81;100586.09;4952655;28;20125;-72
2022/07/04 00:11:59;;;;;;;1.50;0.35;;;;;;;30.72;40.70;100585.56;4949859;28;20066;-72
2022/07/04 00:14:24;;;;;;;2.40;0.40;;;;;;;30.72;40.56;100582.09;4950443;28;20114;-72
2022/07/04 00:16:50;;;;;;;2.95;0.45;;;;;;;30.71;40.62;100569.75;4951585;29;20118;-72
2022/07/04 00:19:15;;;;;;;3.15;0.60;;;;;;;30.72;40.17;100576.72;4951196;28;20065;-72
2022/07/04 00:21:40;;;;;;;3.35;0.30;;;;;;;30.72;40.25;100568.66;4951730;28;20401;-72
2022/07/04 00:24:06;;;;;;;1.15;0.40;;;;;;;30.71;40.55;100570.53;4950751;28;20039;-72
2022/07/04 00:26:31;;;;;;;2.05;0.50;;;;;;;30.71;40.41;100569.75;4951049;29;20031;-72
2022/07/04 00:28:57;;;;;;;0.80;0.38;;;;;;;30.71;40.50;100572.44;4950619;28;20027;-72
2022/07/04 00:31:22;;;;;;;2.70;0.30;;;;;;;30.71;40.22;100561.66;4950150;28;20121;-72
2022/07/04 00:33:48;;;;;;;2.20;0.45;;;;;;;30.72;40.20;100568.66;4949826;28;20419;-72
2022/07/04 00:36:13;;;;;;;0.77;0.30;;;;;;;30.72;40.80;100568.66;4953833;28;20035;-72
2022/07/04 00:38:39;;;;;;;1.10;0.30;;;;;;;30.73;40.71;100570.22;4951056;28;20034;-72
2022/07/04 00:41:04;;;;;;;1.35;0.40;;;;;;;30.73;40.61;100562.97;4950729;29;20106;-72
2022/07/04 00:43:30;;;;;;;2.45;0.60;;;;;;;30.76;40.83;100565.13;4953144;28;20061;-72
2022/07/04 00:45:56;;;;;;;1.98;0.52;;;;;;;30.76;40.82;100559.72;4951586;28;20485;-72
2022/07/04 00:48:21;;;;;;;1.52;0.40;;;;;;;30.76;40.54;100550.88;4949943;28;20518;-72
2022/07/04 00:50:48;;;;;;;1.35;0.30;;;;;;;30.77;40.60;100549.78;4951119;28;20043;-72
2022/07/04 00:53:18;;;;;;;0.70;0.40;;;;;;;30.76;40.63;100554.34;4949661;28;20038;-72
2022/07/04 00:55:45;;;;;;;2.10;0.40;;;;;;;30.77;40.67;100552.47;4950652;29;20035;-71
2022/07/04 00:58:12;;;;;;;1.58;0.50;;;;;;;30.78;40.81;100543.31;4950822;29;20107;-72
2022/07/04 01:00:38;;;;;;;1.45;0.40;;;;;;;30.77;41.11;100555.16;4950988;28;20034;-72
2022/07/04 01:03:04;;;;;;;2.03;0.40;;;;;;;30.76;41.08;100561.63;4949464;28;20038;-72
2022/07/04 01:05:29;;;;;;;1.05;0.40;;;;;;;30.73;40.68;100552.22;4950671;29;20027;-72
2022/07/04 01:07:56;;;;;;;1.33;0.35;;;;;;;30.72;40.49;100545.22;4952531;28;20126;-72
2022/07/04 01:10:22;;;;;;;1.25;0.40;;;;;;;30.71;40.57;100556.28;4948709;28;20030;-72
2022/07/04 01:12:47;;;;;;;0.60;0.40;;;;;;;30.69;40.58;100546.63;4951150;28;20399;-72
2022/07/04 01:15:13;;;;;;;2.08;0.32;;;;;;;30.69;40.97;100549.31;4949560;28;20027;-72
2022/07/04 01:17:38;;;;;;;1.40;0.60;;;;;;;30.69;40.72;100545.81;4950201;29;20558;-72
2022/07/04 01:20:04;;;;;;;1.42;0.40;;;;;;;30.68;41.04;100533.44;4950532;29;20062;-71
2022/07/04 01:22:30;;;;;;;1.20;0.40;;;;;;;30.68;40.78;100542.31;4951639;28;20031;-72
2022/07/04 01:24:55;;;;;;;1.48;0.60;;;;;;;30.67;41.04;100534.53;4949349;28;20128;-72
2022/07/04 01:27:21;;;;;;;4.75;0.70;;;;;;;30.66;40.90;100533.72;4949318;28;20024;-72
2022/07/04 01:29:46;;;;;;;1.77;0.63;;;;;;;30.66;41.41;100527.53;4950452;29;20055;-71
2022/07/04 01:32:12;;;;;;;3.22;0.50;;;;;;;30.62;40.79;100524.59;4950134;28;20035;-72
2022/07/04 01:34:38;;;;;;;2.60;0.60;;;;;;;30.62;41.06;100523.78;4950409;29;20027;-71
2022/07/04 01:37:04;;;;;;;1.90;0.60;;;;;;;30.63;41.13;100520.03;4950235;29;20099;-71
2022/07/04 01:39:29;;;;;;;2.20;0.60;;;;;;;30.58;39.95;100522.72;4950049;28;20415;-72
2022/07/04 01:41:55;;;;;;;1.63;0.57;;;;;;;30.50;39.47;100525.94;4949200;28;20071;-72
2022/07/04 01:44:21;;;;;;;2.47;0.40;;;;;;;30.48;39.37;100528.91;4952151;28;20031;-72
2022/07/04 01:46:47;;;;;;;4.35;0.60;;;;;;;30.51;39.92;100539.13;4949896;29;20054;-72
2022/07/04 01:49:12;;;;;;;1.58;0.50;;;;;;;30.55;39.90;100531.31;4950092;28;20035;-72
2022/07/04 01:51:45;;;;;;;1.33;0.50;;;;;;;30.54;40.06;100527.81;4951736;28;20061;-72
2022/07/04 01:54:10;;;;;;;3.90;0.57;;;;;;;30.55;40.26;100524.06;4950044;28;20685;-72
2022/07/04 01:56:36;;;;;;;2.58;0.40;;;;;;;30.52;40.26;100521.91;4948889;28;20122;-72
2022/07/04 01:59:03;;;;;;;1.85;0.50;;;;;;;30.55;39.92;100525.94;4949649;29;20035;-72
2022/07/04 02:01:29;;;;;;;5.18;0.60;;;;;;;30.56;40.37;100528.34;4951804;28;20436;-72
2022/07/04 02:03:58;;;;;;;1.27;0.50;;;;;;;30.58;40.45;100520.84;4949063;28;20115;-72
2022/07/04 02:06:24;;;;;;;1.15;0.60;;;;;;;30.59;40.62;100517.06;4949928;29;20027;-72
2022/07/04 02:14:18;;;;;;;2.67;0.75;;;;;;;30.33;39.94;100520.91;4949230;28;20067;-72
2022/07/04 02:16:43;;;;;;;3.40;0.50;;;;;;;30.17;40.23;100522.03;4950926;28;20027;-71
2022/07/04 02:19:09;;;;;;;4.65;0.60;;;;;;;30.03;40.36;100517.22;4949804;29;20110;-71
2022/07/04 02:21:35;;;;;;;2.05;0.55;;;;;;;29.88;40.49;100513.72;4949701;29;20031;-71
2022/07/04 02:24:00;;;;;;;1.75;0.60;;;;;;;29.90;40.52;100520.44;4947850;28;20039;-72
2022/07/04 02:26:25;;;;;;;4.03;0.60;;;;;;;29.91;40.29;100526.63;4951733;28;20500;-71
2022/07/04 02:28:51;;;;;;;2.22;0.40;;;;;;;29.90;39.63;100519.63;4949853;29;20032;-71
2022/07/04 02:31:17;;;;;;;4.47;0.50;;;;;;;29.71;39.69;100516.72;4949603;29;20395;-72
2022/07/04 02:33:42;;;;;;;2.50;0.55;;;;;;;29.50;39.63;100523.97;4949395;29;20039;-71
2022/07/04 02:36:08;;;;;;;3.33;0.60;;;;;;;29.40;39.69;100519.38;4949569;28;20028;-71
2022/07/04 02:38:33;;;;;;;1.50;0.60;;;;;;;29.42;39.46;100529.06;4948476;28;20039;-72
2022/07/04 02:40:59;;;;;;;2.08;0.60;;;;;;;29.36;39.30;100522.84;4948834;28;20114;-72
2022/07/04 02:43:24;;;;;;;4.50;0.60;;;;;;;29.37;39.36;100522.59;4949701;29;20035;-72
2022/07/04 02:45:49;;;;;;;2.67;0.50;;;;;;;29.34;40.24;100530.34;4949477;29;20052;-71
2022/07/04 02:48:15;;;;;;;2.42;0.50;;;;;;;29.33;40.41;100524.19;4950925;28;20043;-71
2022/07/04 02:50:40;;;;;;;2.22;0.50;;;;;;;29.40;40.49;100518.56;4949208;28;20039;-71
2022/07/04 02:53:06;;;;;;;2.20;0.32;;;;;;;29.48;41.06;100518.06;4949604;29;20032;-71
2022/07/04 02:55:31;;;;;;;1.58;0.70;;;;;;;29.42;40.94;100519.13;4948917;28;20038;-72
2022/07/04 02:57:57;;;;;;;1.52;0.50;;;;;;;29.51;40.93;100520.22;4949535;28;20136;-72
2022/07/04 03:00:22;;;;;;;1.77;0.50;;;;;;;29.61;41.05;100530.16;4948577;28;20106;-71
2022/07/04 03:02:48;;;;;;;3.33;0.60;;;;;;;29.71;41.13;100524.78;4948998;28;20472;-72
2022/07/04 03:05:13;;;;;;;2.67;0.60;;;;;;;29.66;40.42;100522.09;4953262;29;20031;-72
2022/07/04 03:07:38;;;;;;;4.70;0.60;;;;;;;29.51;40.88;100535.50;4952528;28;20031;-72
2022/07/04 03:10:04;;;;;;;2.25;0.40;;;;;;;29.34;41.13;100535.72;4950921;28;20038;-72
2022/07/04 03:12:30;;;;;;;3.33;0.75;;;;;;;29.18;41.02;100548.34;4952157;28;20043;-71
2022/07/04 03:14:55;;;;;;;2.22;0.60;;;;;;;29.02;41.62;100549.38;4952451;29;20031;-72
2022/07/04 03:17:21;;;;;;;5.68;0.60;;;;;;;28.89;42.09;100553.34;4952715;29;20031;-72
2022/07/04 03:19:47;;;;;;;1.42;0.50;;;;;;;28.83;42.75;100548.25;4952500;28;20055;-72
2022/07/04 03:22:12;;;;;;;1.63;0.70;;;;;;;28.84;42.36;100541.78;4952391;29;20027;-72
2022/07/04 03:24:38;;;;;;;2.15;0.50;;;;;;;28.82;42.89;100544.75;4953226;28;20031;-72
2022/07/04 03:27:04;;;;;;;2.35;0.55;;;;;;;28.79;42.78;100544.47;4952174;28;20023;-72
2022/07/04 03:29:29;;;;;;;4.30;0.80;;;;;;;28.73;42.29;100540.94;4952282;28;20027;-72
2022/07/04 03:31:54;;;;;;;3.60;0.60;;;;;;;28.72;42.14;100540.13;4952455;29;20039;-72
2022/07/04 03:34:20;;;;;;;1.27;0.50;;;;;;;28.88;42.13;100542.88;4952421;29;20038;-72
2022/07/04 03:36:45;;;;;;;5.05;0.40;;;;;;;29.03;41.74;100553.66;4952162;29;20396;-72
2022/07/04 03:39:11;;;;;;;2.10;0.50;;;;;;;29.06;41.60;100550.44;4951408;28;20395;-72
2022/07/04 03:41:36;;;;;;;2.47;0.50;;;;;;;28.99;41.79;100558.75;4951761;28;20078;-72
2022/07/04 03:44:02;;;;;;;2.53;0.60;;;;;;;28.89;41.42;100557.91;4951499;28;20034;-72
2022/07/04 03:46:28;;;;;;;3.47;0.32;;;;;;;28.75;41.71;100565.63;4952281;29;20316;-72
2022/07/04 03:48:54;;;;;;;2.53;0.38;;;;;;;28.60;42.20;100566.34;4952141;29;20031;-72
2022/07/04 03:51:20;;;;;;;3.90;0.40;;;;;;;28.55;42.56;100560.97;4954277;28;20130;-72
2022/07/04 03:53:45;;;;;;;3.92;0.77;;;;;;;28.47;42.93;100552.59;4950909;28;20055;-72
2022/07/04 03:56:11;;;;;;;1.75;0.60;;;;;;;28.44;43.15;100550.44;4951794;29;20035;-72
2022/07/04 03:58:36;;;;;;;2.45;0.43;;;;;;;28.51;43.00;100559.88;4951080;28;20491;-72
2022/07/04 04:01:02;;;;;;;2.00;0.50;;;;;;;28.54;43.26;100564.72;4950872;28;20038;-72
2022/07/04 04:06:12;;;;;;;2.03;0.68;;;;;;;28.49;43.20;100559.31;4951932;29;20067;-72
2022/07/04 04:11:12;;;;;;;2.00;0.75;;;;;;;28.44;43.29;100564.66;4969692;23;19926;-72
2022/07/04 04:13:38;;;;;;;2.70;0.50;;;;;;;28.41;43.62;100559.81;4931910;29;20035;-71
2022/07/04 04:16:03;;;;;;;3.35;0.70;;;;;;;28.37;43.96;100569.44;4930982;29;20031;-72
2022/07/04 04:18:29;;;;;;;1.52;0.50;;;;;;;28.23;44.25;100560.25;4932425;29;20043;-71
2022/07/04 04:20:54;;;;;;;3.30;0.50;;;;;;;28.17;44.59;100563.94;4932253;29;20391;-72
2022/07/04 04:23:20;;;;;;;3.95;0.52;;;;;;;28.11;44.47;100560.44;4932349;29;20476;-72
2022/07/04 04:25:46;;;;;;;1.05;0.60;;;;;;;28.16;44.22;100559.66;4932075;29;20046;-72
2022/07/04 04:28:11;;;;;;;2.08;0.70;;;;;;;28.16;44.29;100559.66;4932491;29;20051;-71
2022/07/04 04:30:36;;;;;;;1.58;0.50;;;;;;;28.20;44.53;100558.88;4932006;29;20043;-72
2022/07/04 04:33:02;;;;;;;2.85;0.50;;;;;;;28.23;44.12;100555.72;4932350;29;20023;-71
2022/07/04 04:35:27;;;;;;;2.72;0.60;;;;;;;28.36;44.31;100549.06;4931904;29;20040;-72
2022/07/04 04:37:53;;;;;;;3.17;0.45;;;;;;;28.34;44.29;100544.00;4932044;29;20070;-72
2022/07/04 04:40:18;;;;;;;3.03;0.60;;;;;;;28.37;44.04;100539.97;4932027;29;20038;-72
2022/07/04 04:42:44;;;;;;;15.15;1.02;;;;;;;28.38;43.77;100544.25;4932229;29;20377;-72
2022/07/04 04:45:10;;;;;;;1.40;0.63;;;;;;;28.27;43.73;100538.06;4931891;29;20035;-72
2022/07/04 04:47:35;;;;;;;2.13;0.40;;;;;;;28.16;42.66;100536.34;4932169;29;20034;-72
2022/07/04 04:50:00;;;;;;;3.33;0.50;;;;;;;28.15;42.50;100529.38;4931568;29;20028;-72
2022/07/04 04:52:26;;;;;;;2.85;0.57;;;;;;;28.15;42.34;100533.94;4932057;29;20034;-72
2022/07/04 04:54:52;;;;;;;1.20;0.50;;;;;;;28.12;42.81;100542.47;4931677;29;20043;-72
2022/07/04 04:57:17;;;;;;;3.90;0.65;;;;;;;28.13;42.31;100531.50;4931656;29;20034;-72
2022/07/04 04:59:43;;;;;;;4.05;0.60;;;;;;;28.16;42.70;100535.53;4931827;29;20063;-72
2022/07/04 05:02:09;;;;;;;2.17;0.60;;;;;;;28.20;42.68;100532.09;4931615;29;20032;-72
2022/07/04 05:04:34;;;;;;;4.10;0.52;;;;;;;28.19;42.74;100533.16;4931339;29;20032;-72
2022/07/04 05:07:00;;;;;;;1.45;0.40;;;;;;;28.26;42.59;100525.72;4931483;29;20036;-72
2022/07/04 05:09:25;;;;;;;5.00;0.50;;;;;;;28.35;42.19;100523.38;4931590;29;20035;-72
2022/07/04 05:11:51;;;;;;;2.58;0.45;;;;;;;28.34;42.77;100521.75;4931481;29;20470;-72
2022/07/04 05:14:17;;;;;;;1.33;0.52;;;;;;;28.31;42.62;100527.63;4931410;29;20488;-72
2022/07/04 05:16:43;;;;;;;1.23;0.40;;;;;;;28.26;42.05;100525.72;4931999;29;20072;-72
2022/07/04 05:19:08;;;;;;;2.75;0.50;;;;;;;28.22;41.98;100526.50;4931119;29;20500;-71
2022/07/04 05:21:34;;;;;;;2.35;0.50;;;;;;;28.15;42.38;100524.03;4931257;29;20028;-71
2022/07/04 05:23:59;;;;;;;2.63;0.65;;;;;;;28.21;41.80;100530.22;4931179;29;20429;-71
2022/07/04 05:26:25;;;;;;;1.67;0.50;;;;;;;28.24;42.14;100527.88;4930392;29;20087;-72
2022/07/04 05:28:50;;;;;;;1.60;0.60;;;;;;;28.27;42.64;100537.25;4931732;29;20039;-71
2022/07/04 05:31:16;;;;;;;3.42;0.50;;;;;;;28.21;43.04;100532.91;4931148;29;20495;-71
2022/07/04 05:33:41;;;;;;;2.88;0.50;;;;;;;28.18;43.04;100528.06;4931090;29;20347;-71
2022/07/04 05:36:07;;;;;;;3.20;0.50;;;;;;;28.16;43.79;100524.84;4930842;29;20027;-71
2022/07/04 05:38:33;;;;;;;3.97;0.52;;;;;;;28.12;43.58;100523.72;4931384;29;20040;-70
2022/07/04 05:40:58;;;;;;;4.13;0.73;;;;;;;28.06;43.98;100521.03;4931134;29;20551;-72
2022/07/04 05:43:27;;;;;;;3.03;0.60;;;;;;;28.02;43.92;100514.56;4931040;29;20032;-72
2022/07/04 05:45:52;;;;;;;1.40;0.50;;;;;;;28.10;43.93;100513.28;4931035;29;20059;-71
2022/07/04 05:48:18;;;;;;;3.03;0.75;;;;;;;28.17;43.92;100515.72;4931017;29;20499;-71
2022/07/04 05:50:43;;;;;;;2.25;0.50;;;;;;;28.27;43.64;100523.84;4930836;29;20032;-72
2022/07/04 05:53:08;;;;;;;1.10;0.50;;;;;;;28.28;43.43;100520.13;4930963;29;20083;-72
2022/07/04 05:55:34;;;;;;;3.75;0.57;;;;;;;28.32;43.10;100522.00;4930868;29;20492;-72
2022/07/04 05:58:01;;;;;;;1.75;0.50;;;;;;;28.31;42.79;100517.72;4931187;29;20353;-72
2022/07/04 06:00:26;;;;;;;4.85;0.77;;;;;;;28.35;42.25;100518.00;4931148;29;20031;-71
2022/07/04 06:02:51;;;;;;;3.08;0.60;;;;;;;28.39;42.22;100513.72;4930577;29;20034;-71
2022/07/04 06:05:17;;;;;;;7.78;0.77;;;;;;;28.44;41.44;100502.22;4930761;29;20310;-71
2022/07/04 06:07:42;;;;;;;5.45;0.50;;;;;;;28.47;41.29;100512.41;4930838;29;20062;-71
2022/07/04 06:10:08;;;;;;;1.88;0.50;;;;;;;28.47;40.58;100510.53;4930344;29;20048;-72
2022/07/04 06:12:34;;;;;;;1.95;0.50;;;;;;;28.52;40.73;100523.97;4931019;29;20086;-72
2022/07/04 06:15:00;;;;;;;3.25;0.50;;;;;;;28.53;40.52;100520.22;4931824;29;20532;-73
2022/07/04 06:17:26;;;;;;;1.60;0.40;;;;;;;28.58;40.01;100516.75;4932092;29;20170;-72
2022/07/04 06:19:51;;;;;;;6.38;0.70;;;;;;;28.65;39.91;100507.41;4931793;29;20032;-73
2022/07/04 06:22:16;;;;;;;7.53;0.93;;;;;;;28.67;40.30;100499.91;4932094;29;20039;-71
2022/07/04 06:24:42;;;;;;;4.03;0.50;;;;;;;28.71;41.00;100490.28;4930612;29;20032;-71
2022/07/04 06:27:08;;;;;;;3.08;0.68;;;;;;;28.73;41.69;100493.50;4930633;29;20114;-71
2022/07/04 06:29:33;;;;;;;3.60;0.57;;;;;;;28.70;41.71;100485.97;4930686;29;20083;-72
2022/07/04 06:31:58;;;;;;;1.98;0.50;;;;;;;28.75;41.76;100487.88;4930502;29;20050;-71
2022/07/04 06:37:08;;;;;;;4.80;0.70;;;;;;;28.79;42.32;100485.47;4932231;29;20563;-71
2022/07/04 06:39:34;;;;;;;3.65;0.50;;;;;;;28.79;42.29;100488.97;4934334;29;20227;-71
2022/07/04 06:41:59;;;;;;;1.17;0.50;;;;;;;28.90;41.51;100497.84;4934149;29;20027;-71
2022/07/04 06:44:24;;;;;;;1.25;0.45;;;;;;;28.97;41.12;100506.44;4934231;29;20039;-71
2022/07/04 06:46:50;;;;;;;2.50;0.50;;;;;;;29.01;40.69;100499.47;4927995;29;20483;-71
2022/07/04 06:49:16;;;;;;;4.65;0.40;;;;;;;29.00;39.98;100497.88;4933880;29;20463;-71
2022/07/04 06:51:41;;;;;;;2.45;0.50;;;;;;;29.00;39.68;100487.94;4933776;29;20042;-71
2022/07/04 06:54:07;;;;;;;1.10;0.30;;;;;;;29.03;38.91;100491.97;4933790;29;20031;-71
2022/07/04 06:56:33;;;;;;;1.42;0.60;;;;;;;29.00;39.56;100487.13;4933713;29;20083;-71
2022/07/04 06:58:58;;;;;;;2.90;0.93;;;;;;;28.96;39.88;100483.38;4932700;29;20034;-71
2022/07/04 07:01:23;;;;;;;1.20;0.40;;;;;;;28.98;39.91;100481.22;4933518;29;20567;-71
2022/07/04 07:03:49;;;;;;;3.17;0.50;;;;;;;29.05;40.24;100484.47;4933422;29;20031;-71
2022/07/04 07:06:14;;;;;;;1.67;0.50;;;;;;;29.09;39.69;100474.81;4932703;29;20027;-72
2022/07/04 07:08:40;;;;;;;1.95;0.50;;;;;;;29.16;39.26;100474.56;4933067;29;20028;-72
2022/07/04 07:11:18;;;;;;;2.67;0.73;;;;;;;29.18;39.27;100473.22;4933239;29;20087;-71
2022/07/04 07:13:50;;;;;;;5.72;0.77;;;;;;;29.11;41.34;100467.31;4932770;29;20100;-71
2022/07/04 07:16:16;;;;;;;6.53;0.80;;;;;;;29.09;41.99;100461.41;4932201;29;20117;-71
2022/07/04 07:18:43;;;;;;;3.30;0.52;;;;;;;29.17;42.30;100468.94;4931229;29;20485;-71
2022/07/04 07:21:08;;;;;;;4.53;1.05;;;;;;;29.25;42.18;100472.97;4932758;29;20031;-72
2022/07/04 07:23:36;;;;;;;7.50;0.75;;;;;;;29.28;42.76;100462.50;4932194;29;20043;-72
2022/07/04 07:26:02;;;;;;;6.28;0.90;;;;;;;29.36;43.46;100469.19;4941497;23;20035;-72
2022/07/04 07:28:27;;;;;;;3.92;0.88;;;;;;;29.34;42.32;100461.41;4932770;29;20106;-72
2022/07/04 07:30:53;;;;;;;4.55;0.90;;;;;;;29.29;41.92;100458.75;4933117;29;20095;-72
2022/07/04 07:33:18;;;;;;;7.90;0.60;;;;;;;29.28;41.82;100457.13;4931961;29;20055;-71
2022/07/04 07:35:43;;;;;;;3.95;0.80;;;;;;;29.30;42.52;100460.31;4933193;29;20031;-70
2022/07/04 07:38:09;;;;;;;8.45;0.82;;;;;;;29.40;41.69;100449.59;4931677;29;20248;-69
2022/07/04 07:40:34;;;;;;;4.78;0.60;;;;;;;29.50;41.26;100466.81;4932691;28;20048;-70
2022/07/04 07:43:00;;;;;;;8.88;0.73;;;;;;;29.55;41.10;100456.88;4932650;29;20030;-70
2022/07/04 07:45:25;;;;;;;8.75;0.77;;;;;;;29.58;40.93;100452.84;4936619;29;20070;-71
2022/07/04 07:47:51;;;;;;;3.45;0.40;;;;;;;29.60;41.24;100462.22;4945696;28;20150;-70
2022/07/04 07:50:17;;;;;;;6.25;0.70;;;;;;;29.63;40.80;100452.84;4936196;29;20031;-69
2022/07/04 07:52:42;;;;;;;1.67;0.57;;;;;;;29.66;40.42;100457.66;4932155;29;20035;-70
2022/07/04 07:55:07;;;;;;;6.13;0.50;;;;;;;29.70;40.76;100454.16;4932875;29;20032;-70
2022/07/04 07:57:33;;;;;;;4.40;0.77;;;;;;;29.72;39.81;100445.84;4934201;29;20027;-70
2022/07/04 07:59:59;;;;;;;4.40;0.50;;;;;;;29.76;39.76;100449.59;4931357;29;20043;-69
2022/07/04 08:05:10;;;;;;;5.18;0.47;;;;;;;29.83;38.79;100439.34;4931525;29;20126;-70
2022/07/04 08:07:36;;;;;;;6.93;0.60;;;;;;;29.85;38.45;100439.88;4933108;29;20083;-70
2022/07/04 08:10:02;;;;;;;4.65;0.50;;;;;;;29.92;37.63;100432.34;4932596;29;20118;-70
2022/07/04 08:12:27;;;;;;;2.67;0.73;;;;;;;30.00;36.66;100433.69;4932802;29;20468;-69
2022/07/04 08:14:52;;;;;;;2.67;0.70;;;;;;;30.00;36.46;100431.81;4931909;29;20123;-69
2022/07/04 08:17:18;;;;;;;4.68;0.60;;;;;;;30.03;36.79;100425.09;4931071;29;20375;-69
2022/07/04 08:19:43;;;;;;;3.80;0.40;;;;;;;30.09;36.71;100428.56;4932573;29;20027;-69
2022/07/04 08:22:09;;;;;;;8.45;0.50;;;;;;;30.15;36.37;100422.09;4931146;29;20027;-70
2022/07/04 08:24:34;;;;;;;6.25;0.68;;;;;;;30.24;36.86;100423.13;4931114;29;20042;-70
2022/07/04 08:27:00;;;;;;;6.25;0.98;;;;;;;30.29;37.21;100418.53;4932083;29;20048;-70
2022/07/04 08:29:27;;;;;;;5.88;0.52;;;;;;;30.33;36.45;100408.03;4932451;29;20113;-70
2022/07/04 08:31:53;;;;;;;3.90;0.45;;;;;;;30.37;36.17;100409.09;4932128;29;20515;-69
2022/07/04 08:34:18;;;;;;;4.40;0.68;;;;;;;30.42;35.92;100403.69;4932221;29;20032;-70
2022/07/04 08:36:44;;;;;;;5.45;0.68;;;;;;;30.44;35.52;100401.53;4936648;29;20107;-70
2022/07/04 08:39:09;;;;;;;2.35;0.60;;;;;;;30.45;36.25;100402.31;4939640;29;20539;-70
2022/07/04 08:41:40;;;;;;;2.15;0.60;;;;;;;30.52;35.15;100400.94;4931079;29;20395;-69
2022/07/04 08:44:10;;;;;;;2.38;0.45;;;;;;;30.52;35.10;100392.06;4932075;29;20023;-69
2022/07/04 08:46:39;;;;;;;2.90;0.82;;;;;;;30.53;34.86;100388.31;4937032;29;20030;-70
2022/07/04 08:49:17;;;;;;;4.30;0.57;;;;;;;30.52;34.64;100390.19;4933963;29;20036;-71
2022/07/04 08:51:58;;;;;;;6.30;0.88;;;;;;;30.53;33.85;100383.72;4932093;29;20042;-69
2022/07/04 08:59:58;;;;;;;2.38;0.45;;;;;;;30.58;32.09;100382.94;4892841;29;20114;-68
2022/07/04 09:02:26;;;;;;;4.22;0.45;;;;;;;30.56;31.38;100385.88;4929146;29;20074;-69
2022/07/04 09:04:52;;;;;;;6.25;0.50;;;;;;;30.55;30.62;100373.50;4914691;29;20071;-70
2022/07/04 09:07:18;;;;;;;3.67;0.40;;;;;;;30.68;30.46;100380.19;4931055;29;20081;-70
2022/07/04 09:09:44;;;;;;;2.03;0.50;;;;;;;30.73;29.97;100380.09;4929334;29;20038;-71
2022/07/04 09:12:11;;;;;;;0.90;0.50;;;;;;;30.75;29.87;100383.31;4929710;29;20031;-70
2022/07/04 09:14:37;;;;;;;2.10;0.50;;;;;;;30.82;29.85;100374.94;4930249;29;20047;-69
2022/07/04 09:17:04;;;;;;;3.65;0.40;;;;;;;30.92;29.67;100377.56;4929852;29;20024;-70
2022/07/04 09:19:29;;;;;;;4.32;0.60;;;;;;;31.00;29.50;100380.44;4930241;29;20047;-70
2022/07/04 09:21:55;;;;;;;4.78;0.60;;;;;;;31.05;29.15;100376.91;4934750;29;20112;-71
2022/07/04 09:24:48;;;;;;;2.47;0.50;;;;;;;30.95;29.45;100379.69;4930162;29;20111;-71
2022/07/04 09:27:30;;;;;;;2.10;0.50;;;;;;;30.87;29.04;100378.41;4925667;29;20418;-71
2022/07/04 09:29:55;;;;;;;2.17;0.50;;;;;;;30.92;29.42;100382.94;4930202;29;20066;-69
2022/07/04 09:32:33;;;;;;;3.92;0.47;;;;;;;31.00;28.97;100379.66;4930129;29;20472;-70
2022/07/04 09:34:59;;;;;;;4.78;0.40;;;;;;;30.97;29.06;100380.22;4931248;29;20069;-71
2022/07/04 09:37:36;;;;;;;2.65;0.40;;;;;;;30.96;28.94;100383.97;4931146;29;20089;-70
2022/07/04 09:40:04;;;;;;;1.35;0.43;;;;;;;31.00;28.86;100379.66;4929914;29;20031;-70
2022/07/04 09:42:38;;;;;;;3.58;0.40;;;;;;;31.13;28.15;100381.72;4932385;29;20046;-69
2022/07/04 09:45:11;;;;;;;4.00;0.40;;;;;;;31.19;28.22;100382.47;4931114;29;20110;-69
2022/07/04 09:47:38;;;;;;;1.90;0.50;;;;;;;31.16;28.22;100377.66;4938589;29;20594;-69
2022/07/04 09:50:06;;;;;;;1.27;0.40;;;;;;;31.13;28.23;100379.03;4929445;29;20035;-69
2022/07/04 09:52:43;;;;;;;2.67;0.40;;;;;;;31.18;28.19;100375.50;4930149;29;20601;-70
2022/07/04 09:55:09;;;;;;;1.55;0.43;;;;;;;31.31;28.09;100370.22;4933040;29;20044;-69
2022/07/04 09:57:34;;;;;;;2.33;0.60;;;;;;;31.34;28.01;100380.44;4931100;29;20103;-70
2022/07/04 10:00:20;;;;;;;2.50;0.50;;;;;;;31.32;27.40;100371.84;4931141;29;20041;-71
2022/07/04 10:02:46;;;;;;;2.53;0.50;;;;;;;31.30;27.88;100383.97;4930835;29;20522;-71
2022/07/04 10:05:11;;;;;;;2.15;0.73;;;;;;;31.42;27.49;100367.44;4931746;29;20032;-70
2022/07/04 10:07:43;;;;;;;2.15;0.40;;;;;;;31.54;27.05;100373.25;4930807;29;20038;-70
2022/07/04 10:10:28;;;;;;;2.90;0.55;;;;;;;31.54;26.70;100371.34;4929574;29;20490;-69
2022/07/04 10:12:57;;;;;;;2.85;0.40;;;;;;;31.56;27.27;100368.38;4932529;29;20548;-70
2022/07/04 10:15:23;;;;;;;4.13;0.40;;;;;;;31.42;27.74;100370.94;4929638;29;20564;-70
2022/07/04 10:17:49;;;;;;;2.00;0.50;;;;;;;31.38;28.06;100366.41;4933177;29;20110;-69
2022/07/04 10:20:14;;;;;;;3.00;0.47;;;;;;;31.39;28.25;100370.69;4935735;29;20038;-70
2022/07/04 10:22:40;;;;;;;1.45;0.68;;;;;;;31.33;28.57;100376.13;4933499;29;20039;-70
2022/07/04 10:25:07;;;;;;;3.20;0.90;;;;;;;31.26;28.79;100364.88;4932071;29;20389;-70
2022/07/04 10:27:33;;;;;;;1.13;0.43;;;;;;;31.23;29.47;100364.66;4933986;29;20055;-70
2022/07/04 10:30:00;;;;;;;3.97;0.60;;;;;;;31.24;29.87;100368.94;4934801;29;20142;-70
2022/07/04 10:32:27;;;;;;;2.17;0.50;;;;;;;31.37;29.55;100373.69;4934404;29;20106;-70
2022/07/04 10:34:53;;;;;;;5.88;0.93;;;;;;;31.33;29.76;100376.13;4932500;29;20412;-69
2022/07/04 10:37:18;;;;;;;5.93;0.43;;;;;;;31.29;30.07;100367.00;4934689;29;20040;-69
2022/07/04 10:39:44;;;;;;;2.75;0.40;;;;;;;31.28;29.90;100376.19;4932824;29;20099;-70
2022/07/04 10:42:23;;;;;;;2.03;0.45;;;;;;;31.26;30.34;100378.34;4933296;29;20028;-70
2022/07/04 10:44:49;;;;;;;3.08;0.50;;;;;;;31.24;29.93;100382.41;4934354;29;20039;-70
2022/07/04 10:47:27;;;;;;;2.97;0.40;;;;;;;31.25;30.27;100376.75;4939098;29;20031;-71
2022/07/04 10:49:52;;;;;;;5.25;0.50;;;;;;;31.24;30.45;100375.13;4927959;29;20059;-69
2022/07/04 10:52:18;;;;;;;1.40;0.40;;;;;;;31.26;30.31;100383.72;4932136;29;20035;-70
2022/07/04 10:54:45;;;;;;;5.40;1.13;;;;;;;31.23;30.34;100384.28;4933184;29;20031;-70
2022/07/04 10:57:11;;;;;;;2.08;0.50;;;;;;;31.20;30.49;100382.16;4938512;29;20038;-70
2022/07/04 10:59:38;;;;;;;2.38;0.40;;;;;;;31.20;30.20;100376.78;4931025;29;20031;-69
2022/07/04 11:02:03;;;;;;;1.55;0.52;;;;;;;31.22;29.93;100376.50;4934434;29;20118;-69
2022/07/04 11:04:50;;;;;;;4.40;0.40;;;;;;;31.22;29.90;100376.50;4935265;28;20122;-69
2022/07/04 11:07:18;;;;;;;2.90;0.70;;;;;;;31.22;30.01;100374.63;4934597;29;20039;-69
2022/07/04 11:09:44;;;;;;;3.10;0.40;;;;;;;31.33;29.32;100367.25;4940251;28;20035;-69
2022/07/04 11:12:10;;;;;;;2.85;0.43;;;;;;;31.38;29.97;100363.72;4933408;29;20078;-70
2022/07/04 11:14:39;;;;;;;2.38;0.70;;;;;;;31.40;30.02;100367.72;4932634;29;20433;-68
2022/07/04 11:17:10;;;;;;;6.50;0.82;;;;;;;31.42;30.39;100362.06;4933479;29;20075;-69
2022/07/04 11:19:36;;;;;;;1.90;0.55;;;;;;;31.36;30.48;100358.59;4936141;29;20449;-68
2022/07/04 11:22:02;;;;;;;2.42;0.63;;;;;;;31.33;30.57;100354.59;4932225;29;20032;-69
2022/07/04 11:24:28;;;;;;;3.40;0.60;;;;;;;31.34;30.29;100355.41;4930921;29;20114;-69
2022/07/04 11:26:54;;;;;;;2.60;0.70;;;;;;;31.32;30.41;100350.31;4930995;29;20051;-69
2022/07/04 11:29:19;;;;;;;6.20;0.80;;;;;;;31.43;30.08;100350.19;4932146;29;20027;-69
2022/07/04 11:31:49;;;;;;;4.72;0.90;;;;;;;31.44;30.71;100349.13;4932968;29;20032;-70
2022/07/04 11:34:15;;;;;;;1.92;0.55;;;;;;;31.40;30.92;100342.69;4944717;29;20024;-68
2022/07/04 11:36:44;;;;;;;5.43;1.02;;;;;;;31.47;31.08;100348.53;4932458;29;20118;-69
2022/07/04 11:39:12;;;;;;;4.88;0.90;;;;;;;31.47;30.77;100343.97;4933147;29;20032;-69
2022/07/04 11:47:15;;;;;;;4.57;0.50;;;;;;;31.57;30.48;100340.34;4937926;29;20506;-69
2022/07/04 11:49:55;;;;;;;3.10;0.60;;;;;;;31.57;30.34;100329.59;4932086;29;20024;-69